BST,Max TemperatureF,Mean TemperatureF,Min TemperatureF,Max Dew PointF,MeanDew PointF,Min DewpointF,Max Humidity, Mean Humidity, Min Humidity, Max Sea Level PressureIn, Mean Sea Level PressureIn, Min Sea Level PressureIn, Max VisibilityMiles, Mean VisibilityMiles, Min VisibilityMiles, Max Wind SpeedMPH, Mean Wind SpeedMPH, Max Gust SpeedMPH,PrecipitationIn, CloudCover, Events, WindDirDegrees
2012-9-1,64,62,59,59,57,54,100,90,72,30.21,30.07,29.95,6,6,3,26,13,,0.00,7,Rain,229
2012-9-2,66,60,53,59,53,32,94,81,32,30.24,30.15,30.01,6,6,6,17,10,,0.00,5,,249
2012-9-3,66,62,57,61,56,52,100,84,68,30.24,30.16,30.04,6,6,3,21,11,,0.00,6,Rain,231
2012-9-4,62,58,53,59,50,46,94,74,59,30.24,30.15,30.04,6,6,6,21,12,29,0.00,5,,253
2012-9-5,60,53,46,52,48,45,94,80,63,30.39,30.34,30.24,6,6,3,14,8,,0.00,4,Rain,269
2012-9-6,59,50,42,57,52,41,100,91,77,30.36,30.15,30.04,6,5,2,25,10,28,0.00,6,Rain,238
2012-9-7,62,60,59,59,59,57,100,95,88,30.15,30.11,30.06,6,6,2,17,12,,0.00,7,Rain,247
2012-9-8,66,60,53,59,57,52,100,89,73,30.12,30.03,29.89,6,6,6,17,9,,0.00,6,Rain,241
2012-9-9,64,57,50,59,54,46,94,87,73,29.89,29.65,29.47,6,6,3,18,6,28,0.00,5,Rain,160
2012-9-10,60,53,46,59,52,45,100,92,77,29.65,29.58,29.47,6,6,3,16,9,,0.00,5,Rain,255
2012-9-11,57,49,41,46,45,41,100,86,63,29.80,29.72,29.62,6,6,1,20,8,29,0.00,4,Fog-Rain,264
2012-9-12,57,50,42,50,45,39,100,81,55,30.04,29.85,29.74,6,6,5,16,8,,0.00,4,Rain,274
2012-9-13,59,49,39,57,50,37,100,91,76,30.06,29.84,29.56,6,5,2,26,10,39,0.00,6,Rain,236
2012-9-14,59,55,51,52,48,45,88,78,67,29.92,29.69,29.53,6,6,6,25,17,39,0.00,6,Rain,264
2012-9-15,59,55,51,52,50,46,94,81,72,29.92,29.87,29.77,6,6,5,18,13,,0.00,6,Rain,239
2012-9-16,60,55,50,55,50,45,94,84,67,29.77,29.64,29.59,6,6,2,21,13,,0.00,5,Rain,241
2012-9-17,57,52,46,52,48,43,94,86,72,29.65,29.61,29.56,6,6,4,23,13,,0.00,5,Rain,232
2012-9-18,55,48,42,45,39,18,93,72,34,29.98,29.80,29.62,6,6,6,15,10,,0.00,3,Rain,260
2012-9-19,57,47,37,46,41,9,100,80,28,30.06,30.05,30.01,6,6,6,13,7,,0.00,3,Rain,265
2012-9-20,50,47,44,48,46,41,100,94,87,30.04,29.96,29.92,6,6,4,12,4,,0.00,5,Rain,53
2012-9-21,55,46,37,43,39,36,100,77,51,30.12,30.07,30.01,6,6,6,8,4,,0.00,2,,319
2012-9-22,55,42,30,43,38,30,100,83,54,30.18,30.13,30.09,6,6,2,8,2,,0.00,1,Fog,238
2012-9-23,59,48,37,43,40,36,93,75,51,30.06,29.90,29.71,6,6,4,14,7,,0.00,2,Fog,88
2012-9-24,51,48,46,46,45,43,87,83,71,29.68,29.43,29.21,6,6,5,25,16,40,0.00,4,Rain,60
2012-9-25,57,54,50,50,46,41,94,78,62,29.24,29.11,28.97,6,6,4,28,22,43,0.00,6,Rain,36
2012-9-26,60,55,50,48,47,45,94,77,59,29.62,29.47,29.24,6,6,4,23,13,30,0.00,4,Rain,28
2012-9-27,55,48,41,50,46,39,100,85,67,29.71,29.68,29.62,6,6,5,18,7,,0.00,5,Rain,245
2012-9-28,55,50,46,52,46,41,94,84,67,29.68,29.61,29.56,6,6,4,24,14,,0.00,4,Rain,244
2012-9-29,55,52,48,50,45,41,94,78,58,29.95,29.84,29.68,6,6,3,20,14,26,0.00,4,Rain,254
2012-9-30,59,54,50,55,50,46,100,85,63,29.83,29.66,29.62,6,5,2,25,17,33,0.00,5,Rain,231